Data Viewer
| City | State | Eastern Time | Source | 1 Hour Temp Max | 1 Hour Temp Min | 1 Hour Dew Point Max | 1 Hour Dew Point Min | 1 Hour RH Max | 1 Hour RH Min | 1 Hour BP Max | 1 Hour BP Min | 1 Hour Precip | 1 Hour Wind Max | 1 Hour Wind Max Dir |
|---|---|---|---|---|---|---|---|---|---|---|---|---|---|---|
| Mannington Twp. | NJ | 2026-05-09 12:00 | Mesonet | 71 | 69 | 57 | 51 | 65 | 50 | 29.89 | 29.86 | 0.00 | 23 | S |
| Mannington Twp. | NJ | 2026-05-10 01:00 | Mesonet | 53 | 51 | 53 | 51 | 100 | 97 | 29.86 | 29.84 | 0.00 | 3 | SE |
| Mannington Twp. | NJ | 2026-05-10 10:00 | Mesonet | 65 | 57 | 63 | 57 | 100 | 92 | 29.94 | 29.92 | 0.00 | 4 | NNW |
| Mannington Twp. | NJ | 2026-05-10 09:00 | Mesonet | 58 | 55 | 58 | 55 | 100 | 100 | 29.93 | 29.91 | 0.00 | 7 | N |
| Mannington Twp. | NJ | 2026-05-10 08:00 | Mesonet | 55 | 52 | 55 | 52 | 100 | 100 | 29.93 | 29.89 | 0.00 | 7 | NNW |
| Mannington Twp. | NJ | 2026-05-10 07:00 | Mesonet | 52 | 49 | 52 | 49 | 100 | 100 | 29.89 | 29.87 | 0.00 | 4 | ENE |
| Mannington Twp. | NJ | 2026-05-10 06:00 | Mesonet | 51 | 50 | 51 | 50 | 100 | 100 | 29.89 | 29.86 | 0.00 | 9 | ENE |
| Mannington Twp. | NJ | 2026-05-10 05:00 | Mesonet | 51 | 50 | 51 | 50 | 100 | 100 | 29.86 | 29.84 | 0.00 | 4 | NE |
| Mannington Twp. | NJ | 2026-05-10 04:00 | Mesonet | 52 | 49 | 52 | 49 | 100 | 100 | 29.85 | 29.83 | 0.00 | 6 | NE |
| Mannington Twp. | NJ | 2026-05-10 03:00 | Mesonet | 52 | 51 | 52 | 51 | 100 | 100 | 29.85 | 29.82 | 0.00 | 3 | ENE |
| Mannington Twp. | NJ | 2026-05-10 02:00 | Mesonet | 53 | 51 | 53 | 51 | 100 | 100 | 29.85 | 29.84 | 0.00 | 3 | ESE |
| Mannington Twp. | NJ | 2026-05-10 00:00 | Mesonet | 57 | 53 | 55 | 52 | 98 | 93 | 29.86 | 29.84 | 0.00 | 4 | ENE |
| Mannington Twp. | NJ | 2026-05-09 13:00 | Mesonet | 72 | 69 | 55 | 51 | 61 | 49 | 29.86 | 29.84 | 0.00 | 19 | SSW |
| Mannington Twp. | NJ | 2026-05-09 23:00 | Mesonet | 57 | 56 | 55 | 54 | 94 | 91 | 29.85 | 29.83 | 0.00 | 4 | E |
| Mannington Twp. | NJ | 2026-05-09 22:00 | Mesonet | 58 | 57 | 55 | 54 | 92 | 89 | 29.84 | 29.82 | 0.00 | 6 | NE |
| Mannington Twp. | NJ | 2026-05-09 21:00 | Mesonet | 61 | 57 | 55 | 53 | 89 | 80 | 29.84 | 29.81 | 0.00 | 5 | N |
| Mannington Twp. | NJ | 2026-05-09 20:00 | Mesonet | 63 | 61 | 55 | 55 | 80 | 75 | 29.83 | 29.81 | 0.00 | 9 | NNE |
| Mannington Twp. | NJ | 2026-05-09 19:00 | Mesonet | 64 | 63 | 56 | 55 | 77 | 74 | 29.83 | 29.81 | 0.00 | 11 | NNW |
| Mannington Twp. | NJ | 2026-05-09 18:00 | Mesonet | 64 | 63 | 56 | 55 | 76 | 72 | 29.83 | 29.81 | 0.00 | 13 | NNW |
| Mannington Twp. | NJ | 2026-05-09 17:00 | Mesonet | 65 | 63 | 56 | 54 | 74 | 70 | 29.83 | 29.82 | 0.00 | 11 | SW |
| Mannington Twp. | NJ | 2026-05-09 16:00 | Mesonet | 68 | 64 | 57 | 54 | 72 | 63 | 29.84 | 29.82 | 0.00 | 15 | WSW |
| Mannington Twp. | NJ | 2026-05-09 15:00 | Mesonet | 67 | 66 | 55 | 53 | 66 | 62 | 29.85 | 29.84 | 0.00 | 13 | SW |
| Mannington Twp. | NJ | 2026-05-09 14:00 | Mesonet | 70 | 67 | 57 | 54 | 67 | 60 | 29.85 | 29.84 | 0.00 | 12 | SSW |
| Mannington Twp. | NJ | 2026-05-10 11:00 | Mesonet | NE |
data collection created in 0.0076978206634521 (queried in 0.001977) rendered in: 5.4121017456055E-5

